METAR Data
IDs: Format: Raw Decoded Include TAF

Data at: 1301 UTC 20 Oct 2021

Region: TOP
KATL 201252Z 00000KT 10SM FEW150 FEW200 15/11 A3029 RMK AO2 SLP255 T01500111

KBOS 201254Z 28009KT 10SM FEW140 FEW250 16/09 A2989 RMK AO2 SLP121 T01560094

KBWI 201254Z 26008KT 10SM FEW180 SCT250 17/08 A3014 RMK AO2 SLP206 T01720083

KCLE 201251Z 21005KT 10SM FEW120 11/07 A3015 RMK AO2 SLP224 T01110067 $

KCLT 201252Z 00000KT 10SM FEW250 12/10 A3026 RMK AO2 SLP242 T01220100

KCVG 201252Z 19006KT 10SM FEW080 10/08 A3021 RMK AO2 SLP229 T01000078

KDCA 201252Z 20005KT 10SM FEW250 15/09 A3018 RMK AO2 SLP219 T01500089

KDEN 201253Z 16010KT 10SM FEW100 M04/M06 A3019 RMK AO2 SLP230 T10441056

KDFW 201253Z 18009KT 10SM FEW014 FEW029 SCT250 20/18 A3007 RMK AO2 SLP176 T02000178

KDTW 201253Z 23008KT 10SM FEW100 SCT250 10/07 A3012 RMK AO2 SLP201 T01000072

KEWR 201251Z 20006KT 10SM SCT200 BKN250 16/09 A3003 RMK AO2 SLP168 T01610094

KFLL 201253Z AUTO 06013G18KT 10SM FEW040 FEW060 27/21 A3014 RMK AO2 SLP205 T02670211 $

KIAD 201252Z 00000KT 10SM FEW065 16/09 A3017 RMK AO2 SLP217 T01610094

KIAH 201253Z 06004KT 10SM FEW010 SCT025 BKN250 20/18 A3008 RMK AO2 SLP186 T02000183

KJFK 201251Z 27009KT 10SM FEW160 BKN260 17/09 A3003 RMK AO2 SLP170 T01670089

KLAS 201256Z 22004KT 10SM FEW200 11/M04 A3011 RMK AO2 SLP190 T01061044 $

KLAX 201253Z VRB03KT 10SM FEW008 FEW015 SCT200 BKN250 13/11 A3008 RMK AO2 SLP186 T01330106 $

KLGA 201251Z 27010KT 10SM BKN240 17/07 A3001 RMK AO2 SLP162 T01720072

KMCO 201253Z 07005KT 10SM FEW027 FEW280 23/16 A3022 RMK AO2 SLP231 T02330161

KMDW 201253Z 20006KT 10SM FEW110 FEW250 13/07 A3007 RMK AO2 SLP182 T01280067

KMEM 201254Z 17005KT 10SM FEW150 SCT250 14/11 A3019 RMK AO2 SLP222 T01390106

KMIA 201253Z 05008KT 10SM FEW035 BKN250 27/19 A3015 RMK AO2 SLP208 T02670194

KMSP 201253Z VRB04KT 10SM BKN120 BKN130 BKN200 12/08 A2994 RMK AO2 RAB24E33 SLP139 P0000 T01170083

KORD 201251Z 19005KT 10SM FEW100 12/08 A3006 RMK AO2 SLP179 T01220083

KPDX 201253Z 17009KT 10SM -RA FEW048 BKN065 OVC085 13/09 A2973 RMK AO2 SLP066 P0001 T01330094

KPHL 201254Z 24009KT 10SM SCT280 16/08 A3009 RMK AO2 SLP190 T01560078

KPHX 201251Z 00000KT 10SM FEW250 16/06 A3003 RMK AO2 SLP159 T01610056

KPIT 201251Z 00000KT 10SM CLR 11/07 A3019 RMK AO2 SLP232 T01110072

KSAN 201251Z 00000KT 10SM CLR 12/08 A3008 RMK AO2 SLP186 T01170078

KSEA 201253Z 10009KT 7SM -RA OVC060 11/09 A2965 RMK AO2 SLP046 P0008 T01110089

KSFO 201258Z 13012KT 9SM SCT020 BKN027 OVC033 14/11 A3002 RMK AO2 T01440106

KSLC 201254Z 16009KT 10SM FEW100 SCT220 05/02 A3017 RMK AO2 SLP212 T00500022

KSTL 201251Z 00000KT 10SM FEW100 FEW130 14/09 A3011 RMK AO2 SLP191 ACC SW-N T01390089

KTPA 201253Z 00000KT 10SM SCT240 22/16 A3021 RMK AO2 SLP228 T02220156